sensor_id;sensor_type;location;lat;lon;timestamp;P1;durP1;ratioP1;P2;durP2;ratioP2
7501;SDS011;3792;47.740;7.606;2024-03-07T00:01:13;4.50;;;3.10;;
7501;SDS011;3792;47.740;7.606;2024-03-07T00:03:41;5.13;;;3.40;;
7501;SDS011;3792;47.740;7.606;2024-03-07T00:06:09;4.43;;;3.30;;
7501;SDS011;3792;47.740;7.606;2024-03-07T00:08:36;3.53;;;3.00;;
7501;SDS011;3792;47.740;7.606;2024-03-07T00:11:03;3.77;;;3.47;;
7501;SDS011;3792;47.740;7.606;2024-03-07T00:13:32;4.53;;;3.53;;
7501;SDS011;3792;47.740;7.606;2024-03-07T00:16:00;5.83;;;3.30;;
7501;SDS011;3792;47.740;7.606;2024-03-07T00:18:28;4.10;;;3.70;;
7501;SDS011;3792;47.740;7.606;2024-03-07T00:20:55;5.57;;;4.30;;
7501;SDS011;3792;47.740;7.606;2024-03-07T00:23:22;6.17;;;4.90;;
7501;SDS011;3792;47.740;7.606;2024-03-07T00:25:49;8.17;;;5.07;;
7501;SDS011;3792;47.740;7.606;2024-03-07T00:28:16;5.23;;;4.27;;
7501;SDS011;3792;47.740;7.606;2024-03-07T00:30:43;5.30;;;4.40;;
7501;SDS011;3792;47.740;7.606;2024-03-07T00:33:12;5.80;;;5.03;;
7501;SDS011;3792;47.740;7.606;2024-03-07T00:35:39;6.47;;;4.87;;
7501;SDS011;3792;47.740;7.606;2024-03-07T00:38:06;5.93;;;4.67;;
7501;SDS011;3792;47.740;7.606;2024-03-07T00:40:33;5.33;;;4.53;;
7501;SDS011;3792;47.740;7.606;2024-03-07T00:43:00;6.17;;;5.03;;
7501;SDS011;3792;47.740;7.606;2024-03-07T00:45:27;6.53;;;4.97;;
7501;SDS011;3792;47.740;7.606;2024-03-07T00:47:56;5.97;;;4.60;;
7501;SDS011;3792;47.740;7.606;2024-03-07T00:50:25;6.00;;;4.83;;
7501;SDS011;3792;47.740;7.606;2024-03-07T00:52:52;6.07;;;4.80;;
7501;SDS011;3792;47.740;7.606;2024-03-07T00:55:20;5.93;;;4.20;;
7501;SDS011;3792;47.740;7.606;2024-03-07T00:57:47;5.57;;;4.77;;
7501;SDS011;3792;47.740;7.606;2024-03-07T01:00:15;5.00;;;4.30;;
7501;SDS011;3792;47.740;7.606;2024-03-07T01:02:46;6.47;;;4.33;;
7501;SDS011;3792;47.740;7.606;2024-03-07T01:05:14;4.60;;;3.93;;
7501;SDS011;3792;47.740;7.606;2024-03-07T01:07:44;4.43;;;4.03;;
7501;SDS011;3792;47.740;7.606;2024-03-07T01:10:11;4.50;;;4.00;;
7501;SDS011;3792;47.740;7.606;2024-03-07T01:12:38;4.57;;;3.63;;
7501;SDS011;3792;47.740;7.606;2024-03-07T01:15:06;7.37;;;4.20;;
7501;SDS011;3792;47.740;7.606;2024-03-07T01:17:34;4.87;;;4.33;;
7501;SDS011;3792;47.740;7.606;2024-03-07T01:20:01;4.60;;;4.20;;
7501;SDS011;3792;47.740;7.606;2024-03-07T01:22:28;5.30;;;4.57;;
7501;SDS011;3792;47.740;7.606;2024-03-07T01:24:56;4.97;;;4.47;;
7501;SDS011;3792;47.740;7.606;2024-03-07T01:27:23;5.70;;;4.70;;
7501;SDS011;3792;47.740;7.606;2024-03-07T01:29:50;6.83;;;4.60;;
7501;SDS011;3792;47.740;7.606;2024-03-07T01:32:18;7.07;;;5.03;;
7501;SDS011;3792;47.740;7.606;2024-03-07T01:34:45;6.23;;;4.67;;
7501;SDS011;3792;47.740;7.606;2024-03-07T01:37:12;5.73;;;5.17;;
7501;SDS011;3792;47.740;7.606;2024-03-07T01:39:39;8.37;;;5.73;;
7501;SDS011;3792;47.740;7.606;2024-03-07T01:42:07;6.97;;;6.27;;
7501;SDS011;3792;47.740;7.606;2024-03-07T01:44:34;7.60;;;6.13;;
7501;SDS011;3792;47.740;7.606;2024-03-07T01:47:02;8.43;;;7.53;;
7501;SDS011;3792;47.740;7.606;2024-03-07T01:49:29;7.80;;;6.77;;
7501;SDS011;3792;47.740;7.606;2024-03-07T01:51:57;9.10;;;7.40;;
7501;SDS011;3792;47.740;7.606;2024-03-07T01:54:25;10.50;;;8.40;;
7501;SDS011;3792;47.740;7.606;2024-03-07T01:56:53;10.00;;;8.67;;
7501;SDS011;3792;47.740;7.606;2024-03-07T01:59:22;12.07;;;8.70;;
7501;SDS011;3792;47.740;7.606;2024-03-07T02:01:52;9.63;;;8.00;;
7501;SDS011;3792;47.740;7.606;2024-03-07T02:04:19;7.63;;;6.00;;
7501;SDS011;3792;47.740;7.606;2024-03-07T02:06:46;6.77;;;6.07;;
7501;SDS011;3792;47.740;7.606;2024-03-07T02:09:13;6.33;;;5.43;;
7501;SDS011;3792;47.740;7.606;2024-03-07T02:11:40;6.90;;;6.20;;
7501;SDS011;3792;47.740;7.606;2024-03-07T02:14:07;10.97;;;8.60;;
7501;SDS011;3792;47.740;7.606;2024-03-07T02:16:36;6.10;;;5.50;;
7501;SDS011;3792;47.740;7.606;2024-03-07T02:19:03;6.07;;;5.00;;
7501;SDS011;3792;47.740;7.606;2024-03-07T02:21:32;7.43;;;5.70;;
7501;SDS011;3792;47.740;7.606;2024-03-07T02:23:59;7.73;;;5.80;;
7501;SDS011;3792;47.740;7.606;2024-03-07T02:26:26;7.67;;;6.07;;
7501;SDS011;3792;47.740;7.606;2024-03-07T02:28:53;6.77;;;6.07;;
7501;SDS011;3792;47.740;7.606;2024-03-07T02:31:20;8.83;;;6.00;;
7501;SDS011;3792;47.740;7.606;2024-03-07T02:34:01;7.30;;;5.30;;
7501;SDS011;3792;47.740;7.606;2024-03-07T02:36:28;8.13;;;5.27;;
7501;SDS011;3792;47.740;7.606;2024-03-07T02:38:57;6.23;;;5.30;;
7501;SDS011;3792;47.740;7.606;2024-03-07T02:41:24;6.67;;;5.47;;
7501;SDS011;3792;47.740;7.606;2024-03-07T02:43:51;6.37;;;5.47;;
7501;SDS011;3792;47.740;7.606;2024-03-07T02:46:19;5.57;;;4.57;;
7501;SDS011;3792;47.740;7.606;2024-03-07T02:48:46;4.73;;;4.20;;
7501;SDS011;3792;47.740;7.606;2024-03-07T02:51:13;5.67;;;4.10;;
7501;SDS011;3792;47.740;7.606;2024-03-07T02:53:40;4.43;;;4.03;;
7501;SDS011;3792;47.740;7.606;2024-03-07T02:56:09;5.30;;;4.40;;
7501;SDS011;3792;47.740;7.606;2024-03-07T02:58:36;5.50;;;4.17;;
7501;SDS011;3792;47.740;7.606;2024-03-07T03:01:04;5.07;;;4.07;;
7501;SDS011;3792;47.740;7.606;2024-03-07T03:03:31;4.30;;;3.73;;
7501;SDS011;3792;47.740;7.606;2024-03-07T03:05:58;4.60;;;3.50;;
7501;SDS011;3792;47.740;7.606;2024-03-07T03:08:26;5.00;;;3.73;;
7501;SDS011;3792;47.740;7.606;2024-03-07T03:10:53;4.20;;;3.80;;
7501;SDS011;3792;47.740;7.606;2024-03-07T03:13:23;4.40;;;3.97;;
7501;SDS011;3792;47.740;7.606;2024-03-07T03:15:53;4.20;;;3.80;;
7501;SDS011;3792;47.740;7.606;2024-03-07T03:18:20;4.13;;;3.73;;
7501;SDS011;3792;47.740;7.606;2024-03-07T03:20:47;6.80;;;5.73;;
7501;SDS011;3792;47.740;7.606;2024-03-07T03:23:14;8.00;;;5.97;;
7501;SDS011;3792;47.740;7.606;2024-03-07T03:25:43;6.70;;;5.40;;
7501;SDS011;3792;47.740;7.606;2024-03-07T03:28:10;7.77;;;5.70;;
7501;SDS011;3792;47.740;7.606;2024-03-07T03:30:39;8.10;;;5.50;;
7501;SDS011;3792;47.740;7.606;2024-03-07T03:33:07;6.40;;;5.77;;
7501;SDS011;3792;47.740;7.606;2024-03-07T03:35:35;7.90;;;5.73;;
7501;SDS011;3792;47.740;7.606;2024-03-07T03:38:03;7.57;;;6.77;;
7501;SDS011;3792;47.740;7.606;2024-03-07T03:40:30;7.33;;;5.73;;
7501;SDS011;3792;47.740;7.606;2024-03-07T03:42:57;7.17;;;6.37;;
7501;SDS011;3792;47.740;7.606;2024-03-07T03:45:25;8.57;;;6.70;;
7501;SDS011;3792;47.740;7.606;2024-03-07T03:47:54;8.73;;;7.03;;
7501;SDS011;3792;47.740;7.606;2024-03-07T03:50:23;7.93;;;7.13;;
7501;SDS011;3792;47.740;7.606;2024-03-07T03:52:51;8.33;;;6.83;;
7501;SDS011;3792;47.740;7.606;2024-03-07T03:55:18;8.23;;;6.37;;
7501;SDS011;3792;47.740;7.606;2024-03-07T03:57:45;6.70;;;6.00;;
7501;SDS011;3792;47.740;7.606;2024-03-07T04:00:13;6.97;;;5.97;;
7501;SDS011;3792;47.740;7.606;2024-03-07T04:02:41;7.70;;;5.87;;
7501;SDS011;3792;47.740;7.606;2024-03-07T04:05:11;6.10;;;5.50;;
7501;SDS011;3792;47.740;7.606;2024-03-07T04:07:38;7.40;;;6.03;;
7501;SDS011;3792;47.740;7.606;2024-03-07T04:10:07;7.17;;;5.73;;
7501;SDS011;3792;47.740;7.606;2024-03-07T04:12:35;8.20;;;5.93;;
7501;SDS011;3792;47.740;7.606;2024-03-07T04:15:03;7.80;;;6.20;;
7501;SDS011;3792;47.740;7.606;2024-03-07T04:17:32;6.93;;;5.87;;
7501;SDS011;3792;47.740;7.606;2024-03-07T04:19:59;7.03;;;6.23;;
7501;SDS011;3792;47.740;7.606;2024-03-07T04:22:28;6.90;;;5.50;;
7501;SDS011;3792;47.740;7.606;2024-03-07T04:24:55;6.63;;;5.93;;
7501;SDS011;3792;47.740;7.606;2024-03-07T04:27:22;9.00;;;5.53;;
7501;SDS011;3792;47.740;7.606;2024-03-07T04:29:51;6.37;;;5.33;;
7501;SDS011;3792;47.740;7.606;2024-03-07T04:32:17;7.37;;;6.03;;
7501;SDS011;3792;47.740;7.606;2024-03-07T04:34:44;8.07;;;6.57;;
7501;SDS011;3792;47.740;7.606;2024-03-07T04:37:11;11.77;;;9.10;;
7501;SDS011;3792;47.740;7.606;2024-03-07T04:39:40;12.40;;;8.77;;
7501;SDS011;3792;47.740;7.606;2024-03-07T04:42:08;7.13;;;5.90;;
7501;SDS011;3792;47.740;7.606;2024-03-07T04:44:35;6.97;;;5.80;;
7501;SDS011;3792;47.740;7.606;2024-03-07T04:47:04;6.13;;;5.53;;
7501;SDS011;3792;47.740;7.606;2024-03-07T04:49:32;6.90;;;5.67;;
7501;SDS011;3792;47.740;7.606;2024-03-07T04:52:00;6.47;;;5.23;;
7501;SDS011;3792;47.740;7.606;2024-03-07T04:54:28;6.87;;;5.47;;
7501;SDS011;3792;47.740;7.606;2024-03-07T04:56:58;6.33;;;5.30;;
7501;SDS011;3792;47.740;7.606;2024-03-07T04:59:25;6.20;;;5.57;;
7501;SDS011;3792;47.740;7.606;2024-03-07T05:01:52;6.70;;;5.30;;
7501;SDS011;3792;47.740;7.606;2024-03-07T05:04:19;6.13;;;5.53;;
7501;SDS011;3792;47.740;7.606;2024-03-07T05:06:48;7.53;;;5.67;;
7501;SDS011;3792;47.740;7.606;2024-03-07T05:09:15;10.77;;;7.00;;
7501;SDS011;3792;47.740;7.606;2024-03-07T05:11:50;9.10;;;6.87;;
7501;SDS011;3792;47.740;7.606;2024-03-07T05:14:20;8.47;;;6.73;;
7501;SDS011;3792;47.740;7.606;2024-03-07T05:16:47;9.33;;;7.23;;
7501;SDS011;3792;47.740;7.606;2024-03-07T05:19:30;12.07;;;7.63;;
7501;SDS011;3792;47.740;7.606;2024-03-07T05:21:57;11.07;;;7.67;;
7501;SDS011;3792;47.740;7.606;2024-03-07T05:24:24;9.90;;;7.73;;
7501;SDS011;3792;47.740;7.606;2024-03-07T05:26:53;7.93;;;6.00;;
7501;SDS011;3792;47.740;7.606;2024-03-07T05:29:21;8.10;;;5.93;;
7501;SDS011;3792;47.740;7.606;2024-03-07T05:31:48;7.47;;;6.13;;
7501;SDS011;3792;47.740;7.606;2024-03-07T05:34:15;11.20;;;7.33;;
7501;SDS011;3792;47.740;7.606;2024-03-07T05:36:44;9.97;;;6.80;;
7501;SDS011;3792;47.740;7.606;2024-03-07T05:39:12;13.30;;;7.47;;
7501;SDS011;3792;47.740;7.606;2024-03-07T05:41:40;10.47;;;7.60;;
7501;SDS011;3792;47.740;7.606;2024-03-07T05:44:08;10.73;;;7.83;;
7501;SDS011;3792;47.740;7.606;2024-03-07T05:46:37;13.23;;;9.17;;
7501;SDS011;3792;47.740;7.606;2024-03-07T05:49:06;19.57;;;12.60;;
7501;SDS011;3792;47.740;7.606;2024-03-07T05:51:33;10.37;;;8.53;;
7501;SDS011;3792;47.740;7.606;2024-03-07T05:54:01;12.73;;;9.33;;
7501;SDS011;3792;47.740;7.606;2024-03-07T05:56:31;14.77;;;10.50;;
7501;SDS011;3792;47.740;7.606;2024-03-07T05:59:00;11.17;;;8.47;;
7501;SDS011;3792;47.740;7.606;2024-03-07T06:01:30;12.20;;;8.37;;
7501;SDS011;3792;47.740;7.606;2024-03-07T06:04:00;12.17;;;7.97;;
7501;SDS011;3792;47.740;7.606;2024-03-07T06:06:30;12.87;;;8.57;;
7501;SDS011;3792;47.740;7.606;2024-03-07T06:08:58;10.93;;;8.03;;
7501;SDS011;3792;47.740;7.606;2024-03-07T06:11:25;10.80;;;8.30;;
7501;SDS011;3792;47.740;7.606;2024-03-07T06:13:52;10.07;;;8.13;;
7501;SDS011;3792;47.740;7.606;2024-03-07T06:16:20;11.00;;;8.43;;
7501;SDS011;3792;47.740;7.606;2024-03-07T06:18:47;11.77;;;8.33;;
7501;SDS011;3792;47.740;7.606;2024-03-07T06:21:15;14.80;;;9.43;;
7501;SDS011;3792;47.740;7.606;2024-03-07T06:23:44;14.90;;;10.47;;
7501;SDS011;3792;47.740;7.606;2024-03-07T06:26:13;12.83;;;10.20;;
7501;SDS011;3792;47.740;7.606;2024-03-07T06:28:42;14.13;;;9.53;;
7501;SDS011;3792;47.740;7.606;2024-03-07T06:31:10;11.90;;;9.07;;
7501;SDS011;3792;47.740;7.606;2024-03-07T06:33:37;13.03;;;8.77;;
7501;SDS011;3792;47.740;7.606;2024-03-07T06:36:04;11.53;;;8.83;;
7501;SDS011;3792;47.740;7.606;2024-03-07T06:38:33;10.80;;;9.13;;
7501;SDS011;3792;47.740;7.606;2024-03-07T06:41:00;12.77;;;9.27;;
7501;SDS011;3792;47.740;7.606;2024-03-07T06:43:27;12.63;;;9.23;;
7501;SDS011;3792;47.740;7.606;2024-03-07T06:45:54;12.87;;;9.00;;
7501;SDS011;3792;47.740;7.606;2024-03-07T06:48:21;12.17;;;9.50;;
7501;SDS011;3792;47.740;7.606;2024-03-07T06:50:48;12.17;;;8.83;;
7501;SDS011;3792;47.740;7.606;2024-03-07T06:53:17;12.80;;;9.53;;
7501;SDS011;3792;47.740;7.606;2024-03-07T06:55:46;14.60;;;9.80;;
7501;SDS011;3792;47.740;7.606;2024-03-07T06:58:14;14.93;;;10.13;;
7501;SDS011;3792;47.740;7.606;2024-03-07T07:00:42;11.47;;;9.50;;
7501;SDS011;3792;47.740;7.606;2024-03-07T07:03:10;13.53;;;10.30;;
7501;SDS011;3792;47.740;7.606;2024-03-07T07:05:38;14.13;;;11.37;;
7501;SDS011;3792;47.740;7.606;2024-03-07T07:08:06;14.40;;;10.40;;
7501;SDS011;3792;47.740;7.606;2024-03-07T07:10:34;12.50;;;10.17;;
7501;SDS011;3792;47.740;7.606;2024-03-07T07:13:03;12.97;;;10.23;;
7501;SDS011;3792;47.740;7.606;2024-03-07T07:15:30;16.30;;;10.60;;
7501;SDS011;3792;47.740;7.606;2024-03-07T07:17:58;14.10;;;9.67;;
7501;SDS011;3792;47.740;7.606;2024-03-07T07:20:27;12.73;;;9.63;;
7501;SDS011;3792;47.740;7.606;2024-03-07T07:22:54;14.57;;;10.43;;
7501;SDS011;3792;47.740;7.606;2024-03-07T07:25:22;13.43;;;10.20;;
7501;SDS011;3792;47.740;7.606;2024-03-07T07:27:52;13.63;;;10.10;;
7501;SDS011;3792;47.740;7.606;2024-03-07T07:30:21;14.60;;;10.73;;
7501;SDS011;3792;47.740;7.606;2024-03-07T07:32:49;13.67;;;9.97;;
7501;SDS011;3792;47.740;7.606;2024-03-07T07:35:19;17.13;;;12.50;;
7501;SDS011;3792;47.740;7.606;2024-03-07T07:37:46;15.90;;;10.77;;
7501;SDS011;3792;47.740;7.606;2024-03-07T07:40:15;15.23;;;11.07;;
7501;SDS011;3792;47.740;7.606;2024-03-07T07:42:43;15.73;;;12.60;;
7501;SDS011;3792;47.740;7.606;2024-03-07T07:45:12;14.03;;;11.80;;
7501;SDS011;3792;47.740;7.606;2024-03-07T07:47:41;16.33;;;11.93;;
7501;SDS011;3792;47.740;7.606;2024-03-07T07:50:09;12.93;;;10.13;;
7501;SDS011;3792;47.740;7.606;2024-03-07T07:52:42;14.43;;;10.77;;
7501;SDS011;3792;47.740;7.606;2024-03-07T07:55:10;14.23;;;10.70;;
7501;SDS011;3792;47.740;7.606;2024-03-07T07:57:41;13.53;;;9.70;;
7501;SDS011;3792;47.740;7.606;2024-03-07T08:00:10;15.63;;;10.50;;
7501;SDS011;3792;47.740;7.606;2024-03-07T08:02:47;12.13;;;10.23;;
7501;SDS011;3792;47.740;7.606;2024-03-07T08:05:16;15.27;;;10.70;;
7501;SDS011;3792;47.740;7.606;2024-03-07T08:07:44;13.80;;;10.03;;
7501;SDS011;3792;47.740;7.606;2024-03-07T08:10:13;14.37;;;11.13;;
7501;SDS011;3792;47.740;7.606;2024-03-07T08:12:40;11.07;;;9.87;;
7501;SDS011;3792;47.740;7.606;2024-03-07T08:15:08;11.93;;;9.77;;
7501;SDS011;3792;47.740;7.606;2024-03-07T08:17:39;15.17;;;11.17;;
7501;SDS011;3792;47.740;7.606;2024-03-07T08:20:10;15.23;;;10.87;;
7501;SDS011;3792;47.740;7.606;2024-03-07T08:22:38;17.37;;;11.17;;
7501;SDS011;3792;47.740;7.606;2024-03-07T08:25:07;16.40;;;11.87;;
7501;SDS011;3792;47.740;7.606;2024-03-07T08:27:37;13.67;;;10.43;;
7501;SDS011;3792;47.740;7.606;2024-03-07T08:30:07;16.17;;;11.23;;
7501;SDS011;3792;47.740;7.606;2024-03-07T08:32:38;14.57;;;11.20;;
7501;SDS011;3792;47.740;7.606;2024-03-07T08:35:05;14.00;;;10.73;;
7501;SDS011;3792;47.740;7.606;2024-03-07T08:37:36;16.13;;;11.17;;
7501;SDS011;3792;47.740;7.606;2024-03-07T08:40:04;14.93;;;11.07;;
7501;SDS011;3792;47.740;7.606;2024-03-07T08:42:35;15.43;;;12.20;;
7501;SDS011;3792;47.740;7.606;2024-03-07T08:45:02;14.67;;;11.47;;
7501;SDS011;3792;47.740;7.606;2024-03-07T08:47:31;13.97;;;10.57;;
7501;SDS011;3792;47.740;7.606;2024-03-07T08:49:58;14.30;;;10.63;;
7501;SDS011;3792;47.740;7.606;2024-03-07T08:52:25;15.93;;;12.00;;
7501;SDS011;3792;47.740;7.606;2024-03-07T08:54:54;15.70;;;13.17;;
7501;SDS011;3792;47.740;7.606;2024-03-07T08:57:21;16.63;;;12.63;;
7501;SDS011;3792;47.740;7.606;2024-03-07T08:59:48;18.53;;;13.33;;
7501;SDS011;3792;47.740;7.606;2024-03-07T09:02:16;23.20;;;13.20;;
7501;SDS011;3792;47.740;7.606;2024-03-07T09:04:43;18.67;;;13.37;;
7501;SDS011;3792;47.740;7.606;2024-03-07T09:07:11;23.30;;;14.67;;
7501;SDS011;3792;47.740;7.606;2024-03-07T09:09:39;24.00;;;15.07;;
7501;SDS011;3792;47.740;7.606;2024-03-07T09:12:09;20.87;;;15.33;;
7501;SDS011;3792;47.740;7.606;2024-03-07T09:14:36;20.87;;;14.67;;
7501;SDS011;3792;47.740;7.606;2024-03-07T09:17:05;21.93;;;15.90;;
7501;SDS011;3792;47.740;7.606;2024-03-07T09:19:32;24.10;;;16.30;;
7501;SDS011;3792;47.740;7.606;2024-03-07T09:21:59;23.77;;;15.47;;
7501;SDS011;3792;47.740;7.606;2024-03-07T09:24:28;21.50;;;15.40;;
7501;SDS011;3792;47.740;7.606;2024-03-07T09:26:56;23.63;;;16.13;;
7501;SDS011;3792;47.740;7.606;2024-03-07T09:29:25;23.27;;;15.83;;
7501;SDS011;3792;47.740;7.606;2024-03-07T09:31:52;25.63;;;17.37;;
7501;SDS011;3792;47.740;7.606;2024-03-07T09:34:20;25.27;;;16.40;;
7501;SDS011;3792;47.740;7.606;2024-03-07T09:36:47;25.63;;;16.60;;
7501;SDS011;3792;47.740;7.606;2024-03-07T09:39:15;24.60;;;16.40;;
7501;SDS011;3792;47.740;7.606;2024-03-07T09:41:42;27.07;;;17.00;;
7501;SDS011;3792;47.740;7.606;2024-03-07T09:44:09;25.03;;;16.23;;
7501;SDS011;3792;47.740;7.606;2024-03-07T09:46:39;25.03;;;16.67;;
7501;SDS011;3792;47.740;7.606;2024-03-07T09:49:07;24.40;;;15.67;;
7501;SDS011;3792;47.740;7.606;2024-03-07T09:51:38;22.70;;;15.87;;
7501;SDS011;3792;47.740;7.606;2024-03-07T09:54:05;26.87;;;16.93;;
7501;SDS011;3792;47.740;7.606;2024-03-07T09:56:33;23.03;;;15.87;;
7501;SDS011;3792;47.740;7.606;2024-03-07T09:59:03;25.20;;;16.97;;
7501;SDS011;3792;47.740;7.606;2024-03-07T10:01:32;24.83;;;16.67;;
7501;SDS011;3792;47.740;7.606;2024-03-07T10:04:02;22.87;;;16.00;;
7501;SDS011;3792;47.740;7.606;2024-03-07T10:06:36;23.47;;;14.57;;
7501;SDS011;3792;47.740;7.606;2024-03-07T10:09:04;24.17;;;15.73;;
7501;SDS011;3792;47.740;7.606;2024-03-07T10:11:32;25.73;;;16.37;;
7501;SDS011;3792;47.740;7.606;2024-03-07T10:13:59;23.43;;;15.43;;
7501;SDS011;3792;47.740;7.606;2024-03-07T10:16:28;21.47;;;15.17;;
7501;SDS011;3792;47.740;7.606;2024-03-07T10:18:55;21.43;;;15.23;;
7501;SDS011;3792;47.740;7.606;2024-03-07T10:21:23;18.77;;;14.00;;
7501;SDS011;3792;47.740;7.606;2024-03-07T10:23:50;24.60;;;16.57;;
7501;SDS011;3792;47.740;7.606;2024-03-07T10:26:31;21.43;;;14.30;;
7501;SDS011;3792;47.740;7.606;2024-03-07T10:28:59;23.40;;;15.10;;
7501;SDS011;3792;47.740;7.606;2024-03-07T10:31:29;21.37;;;14.37;;
7501;SDS011;3792;47.740;7.606;2024-03-07T10:33:59;20.83;;;14.47;;
7501;SDS011;3792;47.740;7.606;2024-03-07T10:36:29;22.87;;;15.20;;
7501;SDS011;3792;47.740;7.606;2024-03-07T10:38:57;23.10;;;14.90;;
7501;SDS011;3792;47.740;7.606;2024-03-07T10:41:36;26.13;;;15.70;;
7501;SDS011;3792;47.740;7.606;2024-03-07T10:44:15;24.10;;;17.23;;
7501;SDS011;3792;47.740;7.606;2024-03-07T10:46:49;24.83;;;15.73;;
7501;SDS011;3792;47.740;7.606;2024-03-07T10:49:19;23.50;;;15.53;;
7501;SDS011;3792;47.740;7.606;2024-03-07T10:51:54;27.57;;;18.70;;
7501;SDS011;3792;47.740;7.606;2024-03-07T10:54:29;28.00;;;18.63;;
7501;SDS011;3792;47.740;7.606;2024-03-07T10:57:08;24.90;;;17.53;;
7501;SDS011;3792;47.740;7.606;2024-03-07T10:59:49;34.10;;;19.33;;
7501;SDS011;3792;47.740;7.606;2024-03-07T11:02:20;36.97;;;23.87;;
7501;SDS011;3792;47.740;7.606;2024-03-07T11:04:53;34.60;;;22.40;;
7501;SDS011;3792;47.740;7.606;2024-03-07T11:07:23;41.63;;;25.40;;
7501;SDS011;3792;47.740;7.606;2024-03-07T11:09:51;38.33;;;24.13;;
7501;SDS011;3792;47.740;7.606;2024-03-07T11:12:21;35.73;;;24.27;;
7501;SDS011;3792;47.740;7.606;2024-03-07T11:14:50;43.03;;;26.83;;
7501;SDS011;3792;47.740;7.606;2024-03-07T11:17:18;42.57;;;26.57;;
7501;SDS011;3792;47.740;7.606;2024-03-07T11:19:47;47.43;;;29.17;;
7501;SDS011;3792;47.740;7.606;2024-03-07T11:22:29;46.23;;;28.63;;
7501;SDS011;3792;47.740;7.606;2024-03-07T11:25:00;45.07;;;27.57;;
7501;SDS011;3792;47.740;7.606;2024-03-07T11:27:31;51.43;;;30.73;;
7501;SDS011;3792;47.740;7.606;2024-03-07T11:30:04;44.43;;;28.40;;
7501;SDS011;3792;47.740;7.606;2024-03-07T11:32:34;48.63;;;30.23;;
7501;SDS011;3792;47.740;7.606;2024-03-07T11:35:04;44.63;;;28.33;;
7501;SDS011;3792;47.740;7.606;2024-03-07T11:37:40;48.27;;;28.77;;
7501;SDS011;3792;47.740;7.606;2024-03-07T11:40:11;46.93;;;29.53;;
7501;SDS011;3792;47.740;7.606;2024-03-07T11:42:46;45.50;;;28.60;;
7501;SDS011;3792;47.740;7.606;2024-03-07T11:45:14;42.77;;;27.23;;
7501;SDS011;3792;47.740;7.606;2024-03-07T11:47:50;46.43;;;28.77;;
7501;SDS011;3792;47.740;7.606;2024-03-07T11:50:23;50.67;;;30.63;;
7501;SDS011;3792;47.740;7.606;2024-03-07T11:52:52;45.13;;;29.27;;
7501;SDS011;3792;47.740;7.606;2024-03-07T11:55:20;40.20;;;25.97;;
7501;SDS011;3792;47.740;7.606;2024-03-07T11:57:47;46.87;;;27.87;;
7501;SDS011;3792;47.740;7.606;2024-03-07T12:00:16;46.57;;;28.77;;
7501;SDS011;3792;47.740;7.606;2024-03-07T12:02:44;64.30;;;37.33;;
7501;SDS011;3792;47.740;7.606;2024-03-07T12:05:13;57.13;;;32.83;;
7501;SDS011;3792;47.740;7.606;2024-03-07T12:07:42;55.73;;;32.37;;
7501;SDS011;3792;47.740;7.606;2024-03-07T12:10:11;47.87;;;30.03;;
7501;SDS011;3792;47.740;7.606;2024-03-07T12:12:38;53.03;;;32.00;;
7501;SDS011;3792;47.740;7.606;2024-03-07T12:15:06;48.83;;;29.13;;
7501;SDS011;3792;47.740;7.606;2024-03-07T12:17:41;51.37;;;30.83;;
7501;SDS011;3792;47.740;7.606;2024-03-07T12:20:09;49.13;;;30.07;;
7501;SDS011;3792;47.740;7.606;2024-03-07T12:22:50;42.03;;;26.77;;
7501;SDS011;3792;47.740;7.606;2024-03-07T12:25:20;44.63;;;27.57;;
7501;SDS011;3792;47.740;7.606;2024-03-07T12:27:58;43.40;;;27.50;;
7501;SDS011;3792;47.740;7.606;2024-03-07T12:30:28;42.90;;;27.40;;
7501;SDS011;3792;47.740;7.606;2024-03-07T12:32:58;44.30;;;26.67;;
7501;SDS011;3792;47.740;7.606;2024-03-07T12:35:25;42.07;;;26.10;;
7501;SDS011;3792;47.740;7.606;2024-03-07T12:37:52;43.30;;;27.63;;
7501;SDS011;3792;47.740;7.606;2024-03-07T12:40:22;36.90;;;23.30;;
7501;SDS011;3792;47.740;7.606;2024-03-07T12:42:51;38.40;;;24.00;;
7501;SDS011;3792;47.740;7.606;2024-03-07T12:45:21;35.67;;;23.40;;
7501;SDS011;3792;47.740;7.606;2024-03-07T12:47:48;38.97;;;23.70;;
7501;SDS011;3792;47.740;7.606;2024-03-07T12:50:19;34.03;;;22.30;;
7501;SDS011;3792;47.740;7.606;2024-03-07T12:52:46;33.70;;;21.87;;
7501;SDS011;3792;47.740;7.606;2024-03-07T12:55:15;36.97;;;21.87;;
7501;SDS011;3792;47.740;7.606;2024-03-07T12:57:48;30.63;;;20.67;;
7501;SDS011;3792;47.740;7.606;2024-03-07T13:00:16;34.30;;;22.63;;
7501;SDS011;3792;47.740;7.606;2024-03-07T13:02:48;37.50;;;22.63;;
7501;SDS011;3792;47.740;7.606;2024-03-07T13:05:15;35.60;;;22.13;;
7501;SDS011;3792;47.740;7.606;2024-03-07T13:07:47;37.93;;;22.77;;
7501;SDS011;3792;47.740;7.606;2024-03-07T13:10:14;38.37;;;23.73;;
7501;SDS011;3792;47.740;7.606;2024-03-07T13:12:43;35.30;;;22.83;;
7501;SDS011;3792;47.740;7.606;2024-03-07T13:15:12;37.93;;;24.43;;
7501;SDS011;3792;47.740;7.606;2024-03-07T13:17:40;42.97;;;25.10;;
7501;SDS011;3792;47.740;7.606;2024-03-07T13:20:08;35.57;;;22.20;;
7501;SDS011;3792;47.740;7.606;2024-03-07T13:22:40;36.77;;;23.10;;
7501;SDS011;3792;47.740;7.606;2024-03-07T13:25:09;37.20;;;23.27;;
7501;SDS011;3792;47.740;7.606;2024-03-07T13:27:42;38.33;;;22.73;;
7501;SDS011;3792;47.740;7.606;2024-03-07T13:30:18;36.07;;;22.13;;
7501;SDS011;3792;47.740;7.606;2024-03-07T13:32:51;37.97;;;23.17;;
7501;SDS011;3792;47.740;7.606;2024-03-07T13:35:19;38.67;;;24.23;;
7501;SDS011;3792;47.740;7.606;2024-03-07T13:37:47;36.50;;;23.77;;
7501;SDS011;3792;47.740;7.606;2024-03-07T13:40:14;37.50;;;23.27;;
7501;SDS011;3792;47.740;7.606;2024-03-07T13:42:51;36.37;;;23.93;;
7501;SDS011;3792;47.740;7.606;2024-03-07T13:45:24;38.23;;;24.30;;
7501;SDS011;3792;47.740;7.606;2024-03-07T13:47:52;38.10;;;24.67;;
7501;SDS011;3792;47.740;7.606;2024-03-07T13:50:21;43.90;;;25.50;;
7501;SDS011;3792;47.740;7.606;2024-03-07T13:52:49;41.03;;;24.87;;
7501;SDS011;3792;47.740;7.606;2024-03-07T13:55:39;40.67;;;24.10;;
7501;SDS011;3792;47.740;7.606;2024-03-07T13:58:17;35.27;;;22.70;;
7501;SDS011;3792;47.740;7.606;2024-03-07T14:00:57;38.27;;;23.77;;
7501;SDS011;3792;47.740;7.606;2024-03-07T14:03:43;42.97;;;25.97;;
7501;SDS011;3792;47.740;7.606;2024-03-07T14:06:37;40.03;;;26.43;;
7501;SDS011;3792;47.740;7.606;2024-03-07T14:12:20;39.67;;;25.33;;
7501;SDS011;3792;47.740;7.606;2024-03-07T14:21:45;36.03;;;22.80;;
7501;SDS011;3792;47.740;7.606;2024-03-07T14:24:33;33.03;;;21.97;;
7501;SDS011;3792;47.740;7.606;2024-03-07T14:27:15;37.60;;;22.57;;
7501;SDS011;3792;47.740;7.606;2024-03-07T14:29:51;37.30;;;22.67;;
7501;SDS011;3792;47.740;7.606;2024-03-07T14:32:29;35.13;;;22.00;;
7501;SDS011;3792;47.740;7.606;2024-03-07T14:35:02;39.27;;;24.53;;
7501;SDS011;3792;47.740;7.606;2024-03-07T14:37:36;35.37;;;22.70;;
7501;SDS011;3792;47.740;7.606;2024-03-07T14:40:12;37.57;;;24.17;;
7501;SDS011;3792;47.740;7.606;2024-03-07T14:42:41;35.40;;;22.80;;
7501;SDS011;3792;47.740;7.606;2024-03-07T14:45:11;37.37;;;22.80;;
7501;SDS011;3792;47.740;7.606;2024-03-07T14:47:41;37.40;;;23.87;;
7501;SDS011;3792;47.740;7.606;2024-03-07T14:50:12;40.63;;;23.40;;
7501;SDS011;3792;47.740;7.606;2024-03-07T14:52:41;40.53;;;24.03;;
7501;SDS011;3792;47.740;7.606;2024-03-07T14:55:10;37.67;;;24.07;;
7501;SDS011;3792;47.740;7.606;2024-03-07T14:57:38;37.43;;;22.40;;
7501;SDS011;3792;47.740;7.606;2024-03-07T15:00:06;35.93;;;23.73;;
7501;SDS011;3792;47.740;7.606;2024-03-07T15:02:43;40.63;;;23.27;;
7501;SDS011;3792;47.740;7.606;2024-03-07T15:05:12;39.27;;;24.80;;
7501;SDS011;3792;47.740;7.606;2024-03-07T15:07:40;42.17;;;24.40;;
7501;SDS011;3792;47.740;7.606;2024-03-07T15:10:09;32.80;;;22.23;;
7501;SDS011;3792;47.740;7.606;2024-03-07T15:12:43;37.70;;;23.37;;
7501;SDS011;3792;47.740;7.606;2024-03-07T15:15:12;41.13;;;24.07;;
7501;SDS011;3792;47.740;7.606;2024-03-07T15:17:39;38.90;;;24.70;;
7501;SDS011;3792;47.740;7.606;2024-03-07T15:20:07;40.90;;;23.93;;